sensor_id;sensor_type;location;lat;lon;timestamp;P1;durP1;ratioP1;P2;durP2;ratioP2
20076;SDS011;12348;42.710;23.378;2023-07-31T00:00:03;6.57;;;3.03;;
20076;SDS011;12348;42.710;23.378;2023-07-31T00:02:30;4.83;;;2.93;;
20076;SDS011;12348;42.710;23.378;2023-07-31T00:04:57;4.30;;;3.40;;
20076;SDS011;12348;42.710;23.378;2023-07-31T00:07:24;5.83;;;3.30;;
20076;SDS011;12348;42.710;23.378;2023-07-31T00:09:51;4.27;;;3.20;;
20076;SDS011;12348;42.710;23.378;2023-07-31T00:12:18;4.40;;;3.30;;
20076;SDS011;12348;42.710;23.378;2023-07-31T00:14:46;4.53;;;3.10;;
20076;SDS011;12348;42.710;23.378;2023-07-31T00:17:13;5.20;;;3.47;;
20076;SDS011;12348;42.710;23.378;2023-07-31T00:19:45;5.03;;;3.37;;
20076;SDS011;12348;42.710;23.378;2023-07-31T00:22:14;4.17;;;3.30;;
20076;SDS011;12348;42.710;23.378;2023-07-31T00:24:41;3.70;;;3.07;;
20076;SDS011;12348;42.710;23.378;2023-07-31T00:27:07;3.30;;;3.00;;
20076;SDS011;12348;42.710;23.378;2023-07-31T00:29:34;4.47;;;3.53;;
20076;SDS011;12348;42.710;23.378;2023-07-31T00:32:02;4.47;;;3.00;;
20076;SDS011;12348;42.710;23.378;2023-07-31T00:34:30;7.30;;;3.70;;
20076;SDS011;12348;42.710;23.378;2023-07-31T00:36:56;3.97;;;3.57;;
20076;SDS011;12348;42.710;23.378;2023-07-31T00:39:23;4.40;;;3.40;;
20076;SDS011;12348;42.710;23.378;2023-07-31T00:41:50;6.00;;;3.63;;
20076;SDS011;12348;42.710;23.378;2023-07-31T00:44:17;4.93;;;3.80;;
20076;SDS011;12348;42.710;23.378;2023-07-31T00:46:43;4.73;;;3.90;;
20076;SDS011;12348;42.710;23.378;2023-07-31T00:49:12;5.50;;;3.90;;
20076;SDS011;12348;42.710;23.378;2023-07-31T00:51:39;6.80;;;3.73;;
20076;SDS011;12348;42.710;23.378;2023-07-31T00:54:06;7.80;;;3.93;;
20076;SDS011;12348;42.710;23.378;2023-07-31T00:56:33;7.20;;;4.13;;
20076;SDS011;12348;42.710;23.378;2023-07-31T00:58:59;5.40;;;3.80;;
20076;SDS011;12348;42.710;23.378;2023-07-31T01:01:27;5.50;;;4.40;;
20076;SDS011;12348;42.710;23.378;2023-07-31T01:03:54;7.17;;;4.27;;
20076;SDS011;12348;42.710;23.378;2023-07-31T01:06:25;5.20;;;4.70;;
20076;SDS011;12348;42.710;23.378;2023-07-31T01:08:58;7.03;;;4.67;;
20076;SDS011;12348;42.710;23.378;2023-07-31T01:11:30;5.50;;;5.00;;
20076;SDS011;12348;42.710;23.378;2023-07-31T01:13:59;6.97;;;5.00;;
20076;SDS011;12348;42.710;23.378;2023-07-31T01:16:26;8.63;;;5.67;;
20076;SDS011;12348;42.710;23.378;2023-07-31T01:18:53;7.70;;;6.33;;
20076;SDS011;12348;42.710;23.378;2023-07-31T01:21:28;6.73;;;5.80;;
20076;SDS011;12348;42.710;23.378;2023-07-31T01:27:06;12.40;;;8.93;;
20076;SDS011;12348;42.710;23.378;2023-07-31T01:29:37;12.07;;;9.20;;
20076;SDS011;12348;42.710;23.378;2023-07-31T01:32:09;14.53;;;9.40;;
20076;SDS011;12348;42.710;23.378;2023-07-31T01:34:38;14.27;;;9.87;;
20076;SDS011;12348;42.710;23.378;2023-07-31T01:37:05;15.07;;;11.27;;
20076;SDS011;12348;42.710;23.378;2023-07-31T01:39:32;14.53;;;10.53;;
20076;SDS011;12348;42.710;23.378;2023-07-31T01:41:59;14.30;;;11.70;;
20076;SDS011;12348;42.710;23.378;2023-07-31T01:44:27;16.07;;;12.33;;
20076;SDS011;12348;42.710;23.378;2023-07-31T01:46:54;15.90;;;11.83;;
20076;SDS011;12348;42.710;23.378;2023-07-31T01:49:21;19.33;;;13.03;;
20076;SDS011;12348;42.710;23.378;2023-07-31T01:51:47;16.03;;;12.33;;
20076;SDS011;12348;42.710;23.378;2023-07-31T01:54:14;19.40;;;12.53;;
20076;SDS011;12348;42.710;23.378;2023-07-31T01:56:41;17.67;;;13.30;;
20076;SDS011;12348;42.710;23.378;2023-07-31T01:59:07;21.40;;;14.03;;
20076;SDS011;12348;42.710;23.378;2023-07-31T02:01:36;19.90;;;15.63;;
20076;SDS011;12348;42.710;23.378;2023-07-31T02:04:03;22.03;;;14.50;;
20076;SDS011;12348;42.710;23.378;2023-07-31T02:06:30;19.23;;;15.20;;
20076;SDS011;12348;42.710;23.378;2023-07-31T02:08:56;19.13;;;14.80;;
20076;SDS011;12348;42.710;23.378;2023-07-31T02:11:23;20.70;;;14.83;;
20076;SDS011;12348;42.710;23.378;2023-07-31T02:13:50;24.70;;;15.83;;
20076;SDS011;12348;42.710;23.378;2023-07-31T02:16:16;20.43;;;15.63;;
20076;SDS011;12348;42.710;23.378;2023-07-31T02:18:44;20.80;;;15.93;;
20076;SDS011;12348;42.710;23.378;2023-07-31T02:21:14;20.57;;;15.43;;
20076;SDS011;12348;42.710;23.378;2023-07-31T02:23:41;21.47;;;16.10;;
20076;SDS011;12348;42.710;23.378;2023-07-31T02:26:07;20.33;;;14.53;;
20076;SDS011;12348;42.710;23.378;2023-07-31T02:28:34;24.00;;;16.10;;
20076;SDS011;12348;42.710;23.378;2023-07-31T02:31:01;22.67;;;15.13;;
20076;SDS011;12348;42.710;23.378;2023-07-31T02:33:27;20.07;;;15.53;;
20076;SDS011;12348;42.710;23.378;2023-07-31T02:35:55;23.50;;;16.53;;
20076;SDS011;12348;42.710;23.378;2023-07-31T02:38:22;21.73;;;16.67;;
20076;SDS011;12348;42.710;23.378;2023-07-31T02:40:49;23.20;;;18.23;;
20076;SDS011;12348;42.710;23.378;2023-07-31T02:43:16;23.20;;;17.20;;
20076;SDS011;12348;42.710;23.378;2023-07-31T02:45:43;25.00;;;18.13;;
20076;SDS011;12348;42.710;23.378;2023-07-31T02:48:09;25.80;;;19.03;;
20076;SDS011;12348;42.710;23.378;2023-07-31T02:50:36;23.90;;;17.80;;
20076;SDS011;12348;42.710;23.378;2023-07-31T02:53:04;25.70;;;19.03;;
20076;SDS011;12348;42.710;23.378;2023-07-31T02:55:31;24.73;;;18.13;;
20076;SDS011;12348;42.710;23.378;2023-07-31T02:57:58;35.83;;;23.60;;
20076;SDS011;12348;42.710;23.378;2023-07-31T03:00:24;32.03;;;23.00;;
20076;SDS011;12348;42.710;23.378;2023-07-31T03:02:51;34.10;;;20.90;;
20076;SDS011;12348;42.710;23.378;2023-07-31T03:05:18;29.50;;;21.13;;
20076;SDS011;12348;42.710;23.378;2023-07-31T03:07:44;31.63;;;22.70;;
20076;SDS011;12348;42.710;23.378;2023-07-31T03:10:13;31.43;;;22.27;;
20076;SDS011;12348;42.710;23.378;2023-07-31T03:12:39;30.10;;;22.50;;
20076;SDS011;12348;42.710;23.378;2023-07-31T03:15:07;29.37;;;21.67;;
20076;SDS011;12348;42.710;23.378;2023-07-31T03:17:34;31.27;;;22.67;;
20076;SDS011;12348;42.710;23.378;2023-07-31T03:20:01;30.67;;;23.63;;
20076;SDS011;12348;42.710;23.378;2023-07-31T03:22:28;28.43;;;21.07;;
20076;SDS011;12348;42.710;23.378;2023-07-31T03:24:54;29.43;;;20.93;;
20076;SDS011;12348;42.710;23.378;2023-07-31T03:27:22;26.40;;;19.13;;
20076;SDS011;12348;42.710;23.378;2023-07-31T03:29:49;29.23;;;21.67;;
20076;SDS011;12348;42.710;23.378;2023-07-31T03:32:17;29.50;;;22.33;;
20076;SDS011;12348;42.710;23.378;2023-07-31T03:34:43;25.73;;;20.93;;
20076;SDS011;12348;42.710;23.378;2023-07-31T03:37:10;25.57;;;19.30;;
20076;SDS011;12348;42.710;23.378;2023-07-31T03:39:37;25.30;;;19.43;;
20076;SDS011;12348;42.710;23.378;2023-07-31T03:42:03;28.40;;;19.13;;
20076;SDS011;12348;42.710;23.378;2023-07-31T03:44:32;26.20;;;18.80;;
20076;SDS011;12348;42.710;23.378;2023-07-31T03:46:59;28.63;;;21.10;;
20076;SDS011;12348;42.710;23.378;2023-07-31T03:49:25;27.30;;;20.60;;
20076;SDS011;12348;42.710;23.378;2023-07-31T03:51:53;27.70;;;18.57;;
20076;SDS011;12348;42.710;23.378;2023-07-31T03:54:20;28.10;;;21.50;;
20076;SDS011;12348;42.710;23.378;2023-07-31T03:56:46;31.43;;;20.00;;
20076;SDS011;12348;42.710;23.378;2023-07-31T03:59:13;29.87;;;20.87;;
20076;SDS011;12348;42.710;23.378;2023-07-31T04:01:41;28.23;;;19.77;;
20076;SDS011;12348;42.710;23.378;2023-07-31T04:04:08;31.70;;;20.50;;
20076;SDS011;12348;42.710;23.378;2023-07-31T04:06:34;41.77;;;29.33;;
20076;SDS011;12348;42.710;23.378;2023-07-31T04:09:01;28.20;;;21.00;;
20076;SDS011;12348;42.710;23.378;2023-07-31T04:11:28;27.03;;;20.70;;
20076;SDS011;12348;42.710;23.378;2023-07-31T04:13:55;28.17;;;20.47;;
20076;SDS011;12348;42.710;23.378;2023-07-31T04:16:22;31.63;;;21.90;;
20076;SDS011;12348;42.710;23.378;2023-07-31T04:18:54;29.83;;;20.30;;
20076;SDS011;12348;42.710;23.378;2023-07-31T04:21:20;29.67;;;21.43;;
20076;SDS011;12348;42.710;23.378;2023-07-31T04:23:47;30.87;;;20.83;;
20076;SDS011;12348;42.710;23.378;2023-07-31T04:26:14;28.87;;;21.17;;
20076;SDS011;12348;42.710;23.378;2023-07-31T04:28:41;33.10;;;22.17;;
20076;SDS011;12348;42.710;23.378;2023-07-31T04:31:14;31.17;;;21.97;;
20076;SDS011;12348;42.710;23.378;2023-07-31T04:33:40;32.37;;;20.73;;
20076;SDS011;12348;42.710;23.378;2023-07-31T04:36:08;29.33;;;19.60;;
20076;SDS011;12348;42.710;23.378;2023-07-31T04:38:36;34.77;;;22.33;;
20076;SDS011;12348;42.710;23.378;2023-07-31T04:41:02;32.80;;;21.67;;
20076;SDS011;12348;42.710;23.378;2023-07-31T04:43:30;28.13;;;20.60;;
20076;SDS011;12348;42.710;23.378;2023-07-31T04:45:57;29.60;;;20.47;;
20076;SDS011;12348;42.710;23.378;2023-07-31T04:48:24;31.13;;;21.17;;
20076;SDS011;12348;42.710;23.378;2023-07-31T04:50:50;30.33;;;20.13;;
20076;SDS011;12348;42.710;23.378;2023-07-31T04:53:19;33.73;;;20.70;;
20076;SDS011;12348;42.710;23.378;2023-07-31T04:55:45;29.57;;;19.73;;
20076;SDS011;12348;42.710;23.378;2023-07-31T04:58:12;29.87;;;20.57;;
20076;SDS011;12348;42.710;23.378;2023-07-31T05:00:39;31.20;;;19.77;;
20076;SDS011;12348;42.710;23.378;2023-07-31T05:03:06;30.30;;;21.07;;
20076;SDS011;12348;42.710;23.378;2023-07-31T05:05:33;35.67;;;20.57;;
20076;SDS011;12348;42.710;23.378;2023-07-31T05:07:59;33.03;;;20.57;;
20076;SDS011;12348;42.710;23.378;2023-07-31T05:10:27;32.87;;;19.27;;
20076;SDS011;12348;42.710;23.378;2023-07-31T05:12:54;32.77;;;21.77;;
20076;SDS011;12348;42.710;23.378;2023-07-31T05:15:21;35.80;;;22.97;;
20076;SDS011;12348;42.710;23.378;2023-07-31T05:17:48;28.07;;;19.70;;
20076;SDS011;12348;42.710;23.378;2023-07-31T05:20:15;25.43;;;18.87;;
20076;SDS011;12348;42.710;23.378;2023-07-31T05:22:42;25.50;;;18.93;;
20076;SDS011;12348;42.710;23.378;2023-07-31T05:25:08;25.50;;;19.50;;
20076;SDS011;12348;42.710;23.378;2023-07-31T05:27:36;27.20;;;19.73;;
20076;SDS011;12348;42.710;23.378;2023-07-31T05:30:03;21.47;;;14.43;;
20076;SDS011;12348;42.710;23.378;2023-07-31T05:32:31;16.67;;;12.87;;
20076;SDS011;12348;42.710;23.378;2023-07-31T05:34:58;19.33;;;15.27;;
20076;SDS011;12348;42.710;23.378;2023-07-31T05:37:25;12.67;;;11.37;;
20076;SDS011;12348;42.710;23.378;2023-07-31T05:39:52;14.30;;;11.53;;
20076;SDS011;12348;42.710;23.378;2023-07-31T05:42:19;19.10;;;12.03;;
20076;SDS011;12348;42.710;23.378;2023-07-31T05:44:47;17.80;;;11.87;;
20076;SDS011;12348;42.710;23.378;2023-07-31T05:47:14;12.67;;;11.37;;
20076;SDS011;12348;42.710;23.378;2023-07-31T05:49:41;13.87;;;11.10;;
20076;SDS011;12348;42.710;23.378;2023-07-31T05:52:07;13.33;;;11.40;;
20076;SDS011;12348;42.710;23.378;2023-07-31T05:54:34;13.87;;;10.73;;
20076;SDS011;12348;42.710;23.378;2023-07-31T05:57:01;13.13;;;10.93;;
20076;SDS011;12348;42.710;23.378;2023-07-31T05:59:28;10.67;;;9.17;;
20076;SDS011;12348;42.710;23.378;2023-07-31T06:01:59;11.23;;;8.53;;
20076;SDS011;12348;42.710;23.378;2023-07-31T06:04:26;9.23;;;7.37;;
20076;SDS011;12348;42.710;23.378;2023-07-31T06:06:53;14.97;;;11.63;;
20076;SDS011;12348;42.710;23.378;2023-07-31T06:09:20;8.17;;;6.80;;
20076;SDS011;12348;42.710;23.378;2023-07-31T06:11:47;9.57;;;7.13;;
20076;SDS011;12348;42.710;23.378;2023-07-31T06:14:14;8.37;;;7.27;;
20076;SDS011;12348;42.710;23.378;2023-07-31T06:16:41;12.10;;;7.10;;
20076;SDS011;12348;42.710;23.378;2023-07-31T06:19:10;8.80;;;6.50;;
20076;SDS011;12348;42.710;23.378;2023-07-31T06:21:37;9.57;;;6.53;;
20076;SDS011;12348;42.710;23.378;2023-07-31T06:24:07;10.57;;;6.50;;
20076;SDS011;12348;42.710;23.378;2023-07-31T06:26:34;8.77;;;6.90;;
20076;SDS011;12348;42.710;23.378;2023-07-31T06:29:00;9.70;;;6.50;;
20076;SDS011;12348;42.710;23.378;2023-07-31T06:31:27;8.53;;;5.73;;
20076;SDS011;12348;42.710;23.378;2023-07-31T06:33:54;7.73;;;5.63;;
20076;SDS011;12348;42.710;23.378;2023-07-31T06:36:23;5.63;;;4.53;;
20076;SDS011;12348;42.710;23.378;2023-07-31T06:38:49;7.80;;;5.87;;
20076;SDS011;12348;42.710;23.378;2023-07-31T06:41:16;9.57;;;6.57;;
20076;SDS011;12348;42.710;23.378;2023-07-31T06:43:43;7.27;;;5.67;;
20076;SDS011;12348;42.710;23.378;2023-07-31T06:46:09;5.60;;;4.97;;
20076;SDS011;12348;42.710;23.378;2023-07-31T06:48:36;6.00;;;5.30;;
20076;SDS011;12348;42.710;23.378;2023-07-31T06:51:03;5.43;;;4.27;;
20076;SDS011;12348;42.710;23.378;2023-07-31T06:53:31;7.67;;;5.87;;
20076;SDS011;12348;42.710;23.378;2023-07-31T06:55:58;7.50;;;4.30;;
20076;SDS011;12348;42.710;23.378;2023-07-31T06:58:25;5.23;;;3.90;;
20076;SDS011;12348;42.710;23.378;2023-07-31T07:00:51;4.83;;;3.87;;
20076;SDS011;12348;42.710;23.378;2023-07-31T07:03:18;6.70;;;4.13;;
20076;SDS011;12348;42.710;23.378;2023-07-31T07:05:45;4.87;;;4.00;;
20076;SDS011;12348;42.710;23.378;2023-07-31T07:08:13;11.13;;;4.93;;
20076;SDS011;12348;42.710;23.378;2023-07-31T07:10:41;8.83;;;4.27;;
20076;SDS011;12348;42.710;23.378;2023-07-31T07:13:08;8.10;;;3.83;;
20076;SDS011;12348;42.710;23.378;2023-07-31T07:15:35;6.30;;;3.73;;
20076;SDS011;12348;42.710;23.378;2023-07-31T07:18:01;7.77;;;3.40;;
20076;SDS011;12348;42.710;23.378;2023-07-31T07:20:28;5.73;;;3.87;;
20076;SDS011;12348;42.710;23.378;2023-07-31T07:22:55;5.68;;;3.15;;
20076;SDS011;12348;42.710;23.378;2023-07-31T07:25:22;8.68;;;3.70;;
20076;SDS011;12348;42.710;23.378;2023-07-31T07:27:50;4.75;;;3.65;;
20076;SDS011;12348;42.710;23.378;2023-07-31T07:30:17;4.20;;;3.35;;
20076;SDS011;12348;42.710;23.378;2023-07-31T07:32:45;5.25;;;2.95;;
20076;SDS011;12348;42.710;23.378;2023-07-31T07:35:11;4.60;;;3.05;;
20076;SDS011;12348;42.710;23.378;2023-07-31T07:37:38;3.83;;;3.40;;
20076;SDS011;12348;42.710;23.378;2023-07-31T07:40:06;5.38;;;3.20;;
20076;SDS011;12348;42.710;23.378;2023-07-31T07:42:33;4.10;;;3.67;;
20076;SDS011;12348;42.710;23.378;2023-07-31T07:45:02;5.22;;;3.20;;
20076;SDS011;12348;42.710;23.378;2023-07-31T07:47:29;4.03;;;3.40;;
20076;SDS011;12348;42.710;23.378;2023-07-31T07:49:55;3.85;;;3.45;;
20076;SDS011;12348;42.710;23.378;2023-07-31T07:52:22;3.40;;;3.10;;
20076;SDS011;12348;42.710;23.378;2023-07-31T07:54:49;3.75;;;3.25;;
20076;SDS011;12348;42.710;23.378;2023-07-31T07:57:16;7.78;;;2.80;;
20076;SDS011;12348;42.710;23.378;2023-07-31T07:59:42;4.07;;;2.75;;
20076;SDS011;12348;42.710;23.378;2023-07-31T08:02:10;4.25;;;3.30;;
20076;SDS011;12348;42.710;23.378;2023-07-31T08:04:37;5.00;;;3.28;;
20076;SDS011;12348;42.710;23.378;2023-07-31T08:07:04;4.20;;;2.80;;
20076;SDS011;12348;42.710;23.378;2023-07-31T08:09:31;4.00;;;3.00;;
20076;SDS011;12348;42.710;23.378;2023-07-31T08:11:59;3.83;;;2.63;;
20076;SDS011;12348;42.710;23.378;2023-07-31T08:14:28;4.65;;;3.05;;
20076;SDS011;12348;42.710;23.378;2023-07-31T08:16:55;4.63;;;3.22;;
20076;SDS011;12348;42.710;23.378;2023-07-31T08:19:23;4.45;;;3.05;;
20076;SDS011;12348;42.710;23.378;2023-07-31T08:21:50;5.07;;;3.85;;
20076;SDS011;12348;42.710;23.378;2023-07-31T08:24:17;5.60;;;3.15;;
20076;SDS011;12348;42.710;23.378;2023-07-31T08:26:43;4.00;;;3.13;;
20076;SDS011;12348;42.710;23.378;2023-07-31T08:29:10;6.22;;;4.28;;
20076;SDS011;12348;42.710;23.378;2023-07-31T08:31:37;4.30;;;3.03;;
20076;SDS011;12348;42.710;23.378;2023-07-31T08:34:03;4.55;;;3.33;;
20076;SDS011;12348;42.710;23.378;2023-07-31T08:36:31;4.88;;;2.72;;
20076;SDS011;12348;42.710;23.378;2023-07-31T08:38:58;5.70;;;4.32;;
20076;SDS011;12348;42.710;23.378;2023-07-31T08:41:27;7.22;;;6.13;;
20076;SDS011;12348;42.710;23.378;2023-07-31T08:43:53;5.50;;;3.20;;
20076;SDS011;12348;42.710;23.378;2023-07-31T08:46:21;5.85;;;3.80;;
20076;SDS011;12348;42.710;23.378;2023-07-31T08:48:49;5.60;;;3.33;;
20076;SDS011;12348;42.710;23.378;2023-07-31T08:51:18;6.88;;;3.47;;
20076;SDS011;12348;42.710;23.378;2023-07-31T08:53:47;2.92;;;2.63;;
20076;SDS011;12348;42.710;23.378;2023-07-31T08:56:14;10.90;;;3.40;;
20076;SDS011;12348;42.710;23.378;2023-07-31T08:58:42;5.32;;;3.33;;
20076;SDS011;12348;42.710;23.378;2023-07-31T09:01:10;6.35;;;3.05;;
20076;SDS011;12348;42.710;23.378;2023-07-31T09:03:37;6.72;;;3.78;;
20076;SDS011;12348;42.710;23.378;2023-07-31T09:06:06;4.05;;;2.75;;
20076;SDS011;12348;42.710;23.378;2023-07-31T09:08:33;4.47;;;3.42;;
20076;SDS011;12348;42.710;23.378;2023-07-31T09:11:02;4.50;;;2.72;;
20076;SDS011;12348;42.710;23.378;2023-07-31T09:13:30;6.72;;;3.28;;
20076;SDS011;12348;42.710;23.378;2023-07-31T09:15:58;5.05;;;3.13;;
20076;SDS011;12348;42.710;23.378;2023-07-31T09:18:25;6.80;;;2.95;;
20076;SDS011;12348;42.710;23.378;2023-07-31T09:21:01;4.68;;;2.42;;
20076;SDS011;12348;42.710;23.378;2023-07-31T09:23:39;5.20;;;2.47;;
20076;SDS011;12348;42.710;23.378;2023-07-31T09:26:08;4.15;;;2.35;;
20076;SDS011;12348;42.710;23.378;2023-07-31T09:28:36;3.83;;;2.80;;
20076;SDS011;12348;42.710;23.378;2023-07-31T09:31:03;4.82;;;2.80;;
20076;SDS011;12348;42.710;23.378;2023-07-31T09:33:30;4.25;;;3.10;;
20076;SDS011;12348;42.710;23.378;2023-07-31T09:35:58;5.03;;;2.80;;
20076;SDS011;12348;42.710;23.378;2023-07-31T09:38:26;3.97;;;2.50;;
20076;SDS011;12348;42.710;23.378;2023-07-31T09:40:53;3.92;;;2.95;;
20076;SDS011;12348;42.710;23.378;2023-07-31T09:43:21;4.15;;;2.92;;
20076;SDS011;12348;42.710;23.378;2023-07-31T09:45:54;4.53;;;2.65;;
20076;SDS011;12348;42.710;23.378;2023-07-31T09:48:22;4.03;;;2.28;;
20076;SDS011;12348;42.710;23.378;2023-07-31T09:50:51;6.70;;;2.35;;
20076;SDS011;12348;42.710;23.378;2023-07-31T09:53:19;3.42;;;2.70;;
20076;SDS011;12348;42.710;23.378;2023-07-31T09:55:55;2.60;;;2.40;;
20076;SDS011;12348;42.710;23.378;2023-07-31T09:58:26;3.03;;;2.57;;
20076;SDS011;12348;42.710;23.378;2023-07-31T10:00:55;2.50;;;2.30;;
20076;SDS011;12348;42.710;23.378;2023-07-31T10:03:24;3.03;;;2.63;;
20076;SDS011;12348;42.710;23.378;2023-07-31T10:05:53;4.97;;;2.80;;
20076;SDS011;12348;42.710;23.378;2023-07-31T10:08:21;4.07;;;2.60;;
20076;SDS011;12348;42.710;23.378;2023-07-31T10:10:54;3.37;;;1.87;;
20076;SDS011;12348;42.710;23.378;2023-07-31T10:13:25;5.37;;;2.60;;
20076;SDS011;12348;42.710;23.378;2023-07-31T10:15:55;1.93;;;1.73;;
20076;SDS011;12348;42.710;23.378;2023-07-31T10:18:25;4.80;;;2.40;;
20076;SDS011;12348;42.710;23.378;2023-07-31T10:20:54;2.15;;;1.73;;
20076;SDS011;12348;42.710;23.378;2023-07-31T10:23:22;2.63;;;2.00;;
20076;SDS011;12348;42.710;23.378;2023-07-31T10:25:50;3.65;;;1.92;;
20076;SDS011;12348;42.710;23.378;2023-07-31T10:28:19;4.07;;;2.05;;
20076;SDS011;12348;42.710;23.378;2023-07-31T10:30:48;2.23;;;1.87;;
20076;SDS011;12348;42.710;23.378;2023-07-31T10:33:16;3.30;;;1.80;;
20076;SDS011;12348;42.710;23.378;2023-07-31T10:35:44;3.73;;;2.50;;
20076;SDS011;12348;42.710;23.378;2023-07-31T10:38:13;7.53;;;2.00;;
20076;SDS011;12348;42.710;23.378;2023-07-31T10:40:40;4.43;;;1.73;;
20076;SDS011;12348;42.710;23.378;2023-07-31T10:43:11;4.43;;;2.70;;
20076;SDS011;12348;42.710;23.378;2023-07-31T10:45:53;3.50;;;1.87;;
20076;SDS011;12348;42.710;23.378;2023-07-31T10:48:19;3.67;;;2.20;;
20076;SDS011;12348;42.710;23.378;2023-07-31T10:50:47;2.90;;;2.47;;
20076;SDS011;12348;42.710;23.378;2023-07-31T10:53:22;2.83;;;1.90;;
20076;SDS011;12348;42.710;23.378;2023-07-31T10:55:50;3.67;;;2.67;;
20076;SDS011;12348;42.710;23.378;2023-07-31T10:58:18;2.60;;;2.40;;
20076;SDS011;12348;42.710;23.378;2023-07-31T11:00:46;4.00;;;1.70;;
20076;SDS011;12348;42.710;23.378;2023-07-31T11:03:15;2.17;;;1.87;;
20076;SDS011;12348;42.710;23.378;2023-07-31T11:05:43;3.63;;;2.13;;
20076;SDS011;12348;42.710;23.378;2023-07-31T11:08:15;2.27;;;2.07;;
20076;SDS011;12348;42.710;23.378;2023-07-31T11:10:44;2.27;;;1.77;;
20076;SDS011;12348;42.710;23.378;2023-07-31T11:13:11;2.77;;;1.90;;
20076;SDS011;12348;42.710;23.378;2023-07-31T11:15:38;2.17;;;1.80;;
20076;SDS011;12348;42.710;23.378;2023-07-31T11:18:05;6.20;;;2.63;;
20076;SDS011;12348;42.710;23.378;2023-07-31T11:20:35;2.80;;;1.73;;
20076;SDS011;12348;42.710;23.378;2023-07-31T11:23:03;3.13;;;1.57;;
20076;SDS011;12348;42.710;23.378;2023-07-31T11:25:33;3.80;;;2.77;;
20076;SDS011;12348;42.710;23.378;2023-07-31T11:28:02;3.10;;;1.57;;
20076;SDS011;12348;42.710;23.378;2023-07-31T11:30:30;3.50;;;2.10;;
20076;SDS011;12348;42.710;23.378;2023-07-31T11:32:57;3.27;;;2.10;;
20076;SDS011;12348;42.710;23.378;2023-07-31T11:35:23;2.20;;;1.50;;
20076;SDS011;12348;42.710;23.378;2023-07-31T11:37:51;4.43;;;2.00;;
20076;SDS011;12348;42.710;23.378;2023-07-31T11:40:18;3.37;;;2.33;;
20076;SDS011;12348;42.710;23.378;2023-07-31T11:42:46;3.70;;;2.53;;
20076;SDS011;12348;42.710;23.378;2023-07-31T11:45:12;7.07;;;2.00;;
20076;SDS011;12348;42.710;23.378;2023-07-31T11:47:39;3.60;;;1.83;;
20076;SDS011;12348;42.710;23.378;2023-07-31T11:50:06;7.27;;;3.33;;
20076;SDS011;12348;42.710;23.378;2023-07-31T11:52:38;4.03;;;2.60;;
20076;SDS011;12348;42.710;23.378;2023-07-31T11:55:08;8.73;;;2.50;;
20076;SDS011;12348;42.710;23.378;2023-07-31T11:57:36;4.57;;;2.30;;
20076;SDS011;12348;42.710;23.378;2023-07-31T12:00:06;2.47;;;2.13;;
20076;SDS011;12348;42.710;23.378;2023-07-31T12:02:34;3.63;;;2.17;;
20076;SDS011;12348;42.710;23.378;2023-07-31T12:05:02;4.27;;;2.40;;
20076;SDS011;12348;42.710;23.378;2023-07-31T12:07:42;4.13;;;2.30;;
20076;SDS011;12348;42.710;23.378;2023-07-31T12:10:11;3.33;;;2.40;;
20076;SDS011;12348;42.710;23.378;2023-07-31T12:12:55;2.60;;;2.17;;
20076;SDS011;12348;42.710;23.378;2023-07-31T12:15:28;3.20;;;2.13;;
20076;SDS011;12348;42.710;23.378;2023-07-31T12:18:06;2.93;;;2.63;;
20076;SDS011;12348;42.710;23.378;2023-07-31T12:20:33;3.73;;;3.07;;
20076;SDS011;12348;42.710;23.378;2023-07-31T12:23:01;6.03;;;3.53;;
20076;SDS011;12348;42.710;23.378;2023-07-31T12:25:30;7.60;;;4.50;;
20076;SDS011;12348;42.710;23.378;2023-07-31T12:27:57;5.67;;;4.07;;
20076;SDS011;12348;42.710;23.378;2023-07-31T12:30:27;5.07;;;4.57;;
20076;SDS011;12348;42.710;23.378;2023-07-31T12:32:55;4.60;;;4.10;;
20076;SDS011;12348;42.710;23.378;2023-07-31T12:35:21;6.07;;;3.87;;
20076;SDS011;12348;42.710;23.378;2023-07-31T12:37:48;4.70;;;4.13;;
20076;SDS011;12348;42.710;23.378;2023-07-31T12:40:15;7.90;;;4.90;;
20076;SDS011;12348;42.710;23.378;2023-07-31T12:42:43;5.17;;;4.67;;
20076;SDS011;12348;42.710;23.378;2023-07-31T12:45:10;6.63;;;5.10;;
20076;SDS011;12348;42.710;23.378;2023-07-31T12:47:36;6.40;;;4.70;;
20076;SDS011;12348;42.710;23.378;2023-07-31T12:50:03;5.97;;;4.60;;
20076;SDS011;12348;42.710;23.378;2023-07-31T12:52:31;5.07;;;4.57;;
20076;SDS011;12348;42.710;23.378;2023-07-31T12:54:57;5.93;;;4.77;;
20076;SDS011;12348;42.710;23.378;2023-07-31T12:57:24;6.30;;;5.20;;
20076;SDS011;12348;42.710;23.378;2023-07-31T12:59:52;5.23;;;4.63;;
20076;SDS011;12348;42.710;23.378;2023-07-31T13:02:19;7.27;;;5.50;;
20076;SDS011;12348;42.710;23.378;2023-07-31T13:04:45;6.13;;;5.53;;
20076;SDS011;12348;42.710;23.378;2023-07-31T13:07:12;6.13;;;4.93;;
20076;SDS011;12348;42.710;23.378;2023-07-31T13:09:39;5.43;;;4.90;;
20076;SDS011;12348;42.710;23.378;2023-07-31T13:12:06;5.43;;;4.33;;
20076;SDS011;12348;42.710;23.378;2023-07-31T13:14:33;4.77;;;4.27;;
20076;SDS011;12348;42.710;23.378;2023-07-31T13:17:01;10.63;;;4.83;;
20076;SDS011;12348;42.710;23.378;2023-07-31T13:19:28;5.97;;;4.60;;
20076;SDS011;12348;42.710;23.378;2023-07-31T13:21:55;6.33;;;5.73;;
20076;SDS011;12348;42.710;23.378;2023-07-31T13:24:21;4.80;;;4.30;;
20076;SDS011;12348;42.710;23.378;2023-07-31T13:26:48;4.63;;;4.23;;
20076;SDS011;12348;42.710;23.378;2023-07-31T13:29:15;5.03;;;4.40;;
20076;SDS011;12348;42.710;23.378;2023-07-31T13:31:42;6.37;;;5.07;;
20076;SDS011;12348;42.710;23.378;2023-07-31T13:34:10;5.50;;;4.47;;
20076;SDS011;12348;42.710;23.378;2023-07-31T13:36:36;5.93;;;5.07;;
20076;SDS011;12348;42.710;23.378;2023-07-31T13:39:03;7.57;;;6.30;;
20076;SDS011;12348;42.710;23.378;2023-07-31T13:41:30;13.77;;;8.53;;
20076;SDS011;12348;42.710;23.378;2023-07-31T13:43:56;27.00;;;13.20;;
20076;SDS011;12348;42.710;23.378;2023-07-31T13:46:23;8.37;;;6.30;;
20076;SDS011;12348;42.710;23.378;2023-07-31T13:48:50;12.73;;;8.13;;
20076;SDS011;12348;42.710;23.378;2023-07-31T13:51:21;17.10;;;8.43;;
20076;SDS011;12348;42.710;23.378;2023-07-31T13:53:48;9.13;;;6.30;;
20076;SDS011;12348;42.710;23.378;2023-07-31T13:56:14;10.27;;;6.57;;
20076;SDS011;12348;42.710;23.378;2023-07-31T13:58:41;13.57;;;6.30;;
20076;SDS011;12348;42.710;23.378;2023-07-31T14:01:08;6.17;;;4.80;;
20076;SDS011;12348;42.710;23.378;2023-07-31T14:03:35;14.80;;;6.77;;
20076;SDS011;12348;42.710;23.378;2023-07-31T14:06:01;11.70;;;6.33;;
20076;SDS011;12348;42.710;23.378;2023-07-31T14:08:30;15.57;;;6.33;;
20076;SDS011;12348;42.710;23.378;2023-07-31T14:10:57;33.77;;;14.60;;
20076;SDS011;12348;42.710;23.378;2023-07-31T14:13:24;24.27;;;10.33;;
20076;SDS011;12348;42.710;23.378;2023-07-31T14:15:51;10.33;;;5.10;;
20076;SDS011;12348;42.710;23.378;2023-07-31T14:18:18;5.33;;;4.77;;
20076;SDS011;12348;42.710;23.378;2023-07-31T14:20:44;4.60;;;3.80;;
20076;SDS011;12348;42.710;23.378;2023-07-31T14:23:11;4.50;;;4.10;;
20076;SDS011;12348;42.710;23.378;2023-07-31T14:25:39;4.23;;;3.83;;
20076;SDS011;12348;42.710;23.378;2023-07-31T14:28:06;7.00;;;3.73;;
20076;SDS011;12348;42.710;23.378;2023-07-31T14:30:33;4.43;;;3.63;;